首页
METAR-TAF:

METAR-TAF

机场 :

巴東, 印度尼西亚

纬度: 00-47-12S, 经度: 100-16-50E, 海拔: 5米

当前天气观测

该预报发布于29分钟前的13:30 UTC
风速4节,风向北转西北
温度 27°C
湿度 84%
气压 1011 hPa
能见度10公里或以上
少量云层高于2000英尺

METAR: WIEE 171330Z 34004KT 9999 FEW020 27/24 Q1011 NOSIG

时间: 20:59 (13:59 UTC)

预报

该预报发布于2小时和59分钟前的11:00 UTC
预报有效从17日的 12点(UTC)到 18日的 12点(UTC)
风速5节,风向东北
能见度10公里或以上
少量云层高于2000英尺

TAF: WIEE 171100Z 1712/1812 04005KT 9999 FEW020

超过4000个机场的气象观测和天气预报(METAR&TAF报告)。

可查询的气象台以黄色和红色小点在地图上表示。

将鼠标移到小点上方,可查看气象台名称。

然后点击查看天气观测和预报。

如需切换地图:点击带黑十字的绿色按钮放大地图;点击带横线的绿色按钮缩小地图;或者点击绿色箭头查看邻近地区的地图。


METAR-TAF: